Time;durP1;ratioP1;P1;durP2;ratioP2;P2;SDS_P1;SDS_P2;PMS_P1;PMS_P2;Temp;Humidity;BMP_temperature;BMP_pressure;BME280_temperature;BME280_humidity;BME280_pressure;Samples;Min_cycle;Max_cycle;Signal;HPM_P1;HPM_P2
2023/05/04 00:02:10;;;;;;;5.63;4.50;;;12.80;60.30;;;;;;5054565;28;20489;-58
2023/05/04 00:04:38;;;;;;;5.43;5.00;;;12.80;60.60;;;;;;5055129;28;20469;-58
2023/05/04 00:07:04;;;;;;;5.90;5.10;;;12.70;60.60;;;;;;5054981;28;20449;-58
2023/05/04 00:09:31;;;;;;;5.37;4.40;;;12.70;60.80;;;;;;5054684;28;20556;-58
2023/05/04 00:11:58;;;;;;;6.03;5.43;;;12.70;61.00;;;;;;5054960;28;20895;-58
2023/05/04 00:14:24;;;;;;;5.33;4.83;;;12.70;61.10;;;;;;5054827;28;20922;-57
2023/05/04 00:16:51;;;;;;;5.80;4.40;;;12.70;61.40;;;;;;5055121;28;20456;-58
2023/05/04 00:19:18;;;;;;;6.70;4.70;;;12.70;61.80;;;;;;5054978;28;20454;-58
2023/05/04 00:21:46;;;;;;;6.13;4.80;;;12.60;61.90;;;;;;5055426;28;20521;-58
2023/05/04 00:24:13;;;;;;;5.33;4.83;;;12.60;62.20;;;;;;5054626;28;20473;-58
2023/05/04 00:26:40;;;;;;;6.83;5.30;;;12.60;62.60;;;;;;5054679;28;20457;-58
2023/05/04 00:29:06;;;;;;;8.67;5.30;;;12.50;62.70;;;;;;5054539;28;20450;-58
2023/05/04 00:31:33;;;;;;;5.17;4.77;;;12.50;62.70;;;;;;5054562;28;20785;-58
2023/05/04 00:34:00;;;;;;;6.83;5.47;;;12.60;63.10;;;;;;5054526;28;20469;-58
2023/05/04 00:36:27;;;;;;;6.30;5.70;;;12.50;63.10;;;;;;5054530;28;20445;-58
2023/05/04 00:38:55;;;;;;;6.40;5.73;;;12.50;63.70;;;;;;5054491;28;20456;-58
2023/05/04 00:41:22;;;;;;;7.37;5.20;;;12.50;63.90;;;;;;5054332;28;20522;-58
2023/05/04 00:43:49;;;;;;;7.90;5.67;;;12.50;64.00;;;;;;5054323;28;20548;-58
2023/05/04 00:46:16;;;;;;;5.90;5.40;;;12.50;64.20;;;;;;5054243;28;20461;-58
2023/05/04 00:48:46;;;;;;;4.63;4.23;;;12.40;64.10;;;;;;5054308;28;20442;-58
2023/05/04 00:51:15;;;;;;;5.37;4.87;;;12.40;64.40;;;;;;5054173;28;20445;-58
2023/05/04 00:53:42;;;;;;;5.43;4.93;;;12.40;64.20;;;;;;5054197;28;20565;-58
2023/05/04 00:56:11;;;;;;;7.03;4.80;;;12.30;64.50;;;;;;5053940;28;20458;-58
2023/05/04 00:58:38;;;;;;;6.43;4.20;;;12.30;64.60;;;;;;5054047;28;20446;-58
2023/05/04 01:01:05;;;;;;;6.67;4.73;;;12.20;64.80;;;;;;5053918;28;20484;-58
2023/05/04 01:03:32;;;;;;;5.90;5.27;;;12.20;65.10;;;;;;5053785;28;20819;-58
2023/05/04 01:06:10;;;;;;;6.53;4.87;;;12.10;65.40;;;;;;5053864;28;20825;-58
2023/05/04 01:08:41;;;;;;;5.30;4.80;;;12.10;65.90;;;;;;5054142;28;20459;-58
2023/05/04 01:11:15;;;;;;;6.17;4.73;;;12.10;66.30;;;;;;5053445;28;20931;-58
2023/05/04 01:13:42;;;;;;;5.47;4.20;;;12.10;66.60;;;;;;5053653;28;20536;-58
2023/05/04 01:16:09;;;;;;;5.80;4.83;;;12.10;67.10;;;;;;5053369;28;20962;-58
2023/05/04 01:18:36;;;;;;;4.80;4.40;;;12.00;67.10;;;;;;5053616;28;20441;-58
2023/05/04 01:21:03;;;;;;;5.57;4.13;;;12.00;67.60;;;;;;5053596;28;20477;-58
2023/05/04 01:23:31;;;;;;;5.17;4.20;;;12.00;67.50;;;;;;5053716;28;20459;-58
2023/05/04 01:26:03;;;;;;;6.30;4.70;;;11.90;67.40;;;;;;5053997;28;20950;-57
2023/05/04 01:28:37;;;;;;;4.13;3.83;;;11.90;67.80;;;;;;5055106;28;20484;-58
2023/05/04 01:31:05;;;;;;;4.43;4.03;;;11.80;67.80;;;;;;5054945;28;20434;-57
2023/05/04 01:33:32;;;;;;;5.20;4.70;;;11.80;68.50;;;;;;5054094;28;20446;-58
2023/05/04 01:36:00;;;;;;;5.40;4.90;;;11.70;69.50;;;;;;5053998;28;20450;-58
2023/05/04 01:38:27;;;;;;;6.40;4.40;;;11.70;69.00;;;;;;5053715;28;20453;-57
2023/05/04 01:40:55;;;;;;;5.80;4.50;;;11.70;69.30;;;;;;5053228;28;21021;-58
2023/05/04 01:43:22;;;;;;;6.17;5.13;;;11.70;69.50;;;;;;5053578;28;20457;-58
2023/05/04 01:45:49;;;;;;;4.80;4.37;;;11.60;69.80;;;;;;5053638;28;20450;-58
2023/05/04 01:48:16;;;;;;;5.43;4.80;;;11.60;69.80;;;;;;5053582;28;20453;-58
2023/05/04 01:50:43;;;;;;;6.07;5.47;;;11.60;70.30;;;;;;5053500;28;20469;-58
2023/05/04 01:53:10;;;;;;;7.90;4.60;;;11.60;70.40;;;;;;5053484;28;20458;-58
2023/05/04 01:55:36;;;;;;;5.77;5.17;;;11.50;70.60;;;;;;5053267;28;20473;-58
2023/05/04 01:58:04;;;;;;;6.80;5.23;;;11.50;70.70;;;;;;5052964;28;20939;-58
2023/05/04 02:00:32;;;;;;;5.20;4.70;;;11.40;70.80;;;;;;5053167;28;20529;-58
2023/05/04 02:02:59;;;;;;;4.80;4.40;;;11.40;70.80;;;;;;5052921;28;20800;-58
2023/05/04 02:05:25;;;;;;;6.37;4.60;;;11.30;71.20;;;;;;5053059;28;20809;-58
2023/05/04 02:07:52;;;;;;;7.37;4.57;;;11.30;71.50;;;;;;5053009;28;20890;-58
2023/05/04 02:10:19;;;;;;;4.67;4.20;;;11.30;71.50;;;;;;5053191;28;20429;-58
2023/05/04 02:12:45;;;;;;;5.53;4.97;;;11.30;71.50;;;;;;5052769;28;20442;-58
2023/05/04 02:15:13;;;;;;;5.37;4.90;;;11.30;71.70;;;;;;5052808;28;21000;-58
2023/05/04 02:17:40;;;;;;;4.50;4.10;;;11.30;71.70;;;;;;5053042;28;20453;-57
2023/05/04 02:20:08;;;;;;;5.37;4.87;;;11.20;71.70;;;;;;5052998;28;20453;-58
2023/05/04 02:22:35;;;;;;;6.10;5.00;;;11.20;72.80;;;;;;5052886;28;20481;-58
2023/05/04 02:25:02;;;;;;;6.20;4.90;;;11.20;72.40;;;;;;5055882;28;20515;-58
2023/05/04 02:27:28;;;;;;;6.43;4.47;;;11.20;72.30;;;;;;5056528;28;20481;-58
2023/05/04 02:29:57;;;;;;;7.20;5.60;;;11.20;72.50;;;;;;5056842;28;20456;-58
2023/05/04 02:32:25;;;;;;;4.40;4.03;;;11.10;72.00;;;;;;5057963;28;20829;-58
2023/05/04 02:34:52;;;;;;;4.87;4.40;;;11.10;72.10;;;;;;5056409;28;20987;-58
2023/05/04 02:37:19;;;;;;;7.70;4.60;;;11.10;72.30;;;;;;5056738;28;20449;-58
2023/05/04 02:39:46;;;;;;;4.80;4.30;;;11.00;72.50;;;;;;5056594;28;20946;-58
2023/05/04 02:42:13;;;;;;;7.10;4.83;;;11.00;72.40;;;;;;5056515;28;20825;-58
2023/05/04 02:44:40;;;;;;;5.20;4.53;;;10.90;72.30;;;;;;5056175;28;20978;-58
2023/05/04 02:47:07;;;;;;;5.70;5.00;;;10.90;73.10;;;;;;5056437;28;20445;-57
2023/05/04 02:49:35;;;;;;;5.97;4.80;;;10.90;73.30;;;;;;5056048;28;20997;-58
2023/05/04 02:52:02;;;;;;;5.03;4.53;;;10.90;73.50;;;;;;5056488;28;20476;-58
2023/05/04 02:54:28;;;;;;;5.30;4.80;;;10.80;73.60;;;;;;5055963;28;20476;-58
2023/05/04 02:56:55;;;;;;;5.80;5.30;;;10.70;74.10;;;;;;5056317;28;20459;-57
2023/05/04 02:59:22;;;;;;;6.57;5.93;;;10.60;74.20;;;;;;5056223;28;20503;-58
2023/05/04 03:01:48;;;;;;;6.60;5.67;;;10.60;74.50;;;;;;5056213;28;20477;-58
2023/05/04 03:04:15;;;;;;;6.17;5.57;;;10.60;74.80;;;;;;5055862;28;20848;-58
2023/05/04 03:06:43;;;;;;;7.43;5.70;;;10.60;75.20;;;;;;5055787;28;20939;-58
2023/05/04 03:09:10;;;;;;;7.07;5.40;;;10.60;75.30;;;;;;5055682;28;20469;-58
2023/05/04 03:11:36;;;;;;;7.03;5.13;;;10.60;75.50;;;;;;5055961;28;20449;-58
2023/05/04 03:14:03;;;;;;;5.97;5.40;;;10.60;75.80;;;;;;5055895;28;20465;-58
2023/05/04 03:16:30;;;;;;;5.67;5.10;;;10.60;75.80;;;;;;5057122;28;20449;-58
2023/05/04 03:18:57;;;;;;;5.77;5.23;;;10.60;75.70;;;;;;5055981;28;20503;-58
2023/05/04 03:21:23;;;;;;;5.90;5.30;;;10.60;76.00;;;;;;5055589;28;20495;-58
2023/05/04 03:23:51;;;;;;;8.20;5.17;;;10.60;76.00;;;;;;5055704;28;20531;-58
2023/05/04 03:26:18;;;;;;;6.50;4.83;;;10.50;76.10;;;;;;5055471;28;20954;-58
2023/05/04 03:28:45;;;;;;;8.70;5.43;;;10.50;76.30;;;;;;5055382;28;20947;-58
2023/05/04 03:31:11;;;;;;;8.80;5.20;;;10.50;76.50;;;;;;5055303;28;20935;-58
2023/05/04 03:33:38;;;;;;;4.90;4.50;;;10.50;76.70;;;;;;5055546;28;20473;-58
2023/05/04 03:36:05;;;;;;;6.93;6.03;;;10.50;76.60;;;;;;5054214;28;20500;-59
2023/05/04 03:38:32;;;;;;;5.37;4.87;;;10.50;76.70;;;;;;5055552;28;20460;-58
2023/05/04 03:41:00;;;;;;;5.37;4.87;;;10.50;76.90;;;;;;5055395;28;20445;-58
2023/05/04 03:43:26;;;;;;;6.00;5.00;;;10.50;77.20;;;;;;5055278;28;20453;-57
2023/05/04 03:45:53;;;;;;;5.53;4.53;;;10.50;77.30;;;;;;5055419;28;20453;-58
2023/05/04 03:48:20;;;;;;;7.03;5.20;;;10.50;77.70;;;;;;5055291;28;20818;-58
2023/05/04 03:50:46;;;;;;;6.40;5.07;;;10.50;77.80;;;;;;5055383;28;20477;-58
2023/05/04 03:53:13;;;;;;;6.20;4.80;;;10.50;77.90;;;;;;5055240;28;20503;-58
2023/05/04 03:55:40;;;;;;;5.57;5.03;;;10.50;78.00;;;;;;5055150;28;20472;-58
2023/05/04 03:58:08;;;;;;;8.20;4.97;;;10.50;78.00;;;;;;5054857;28;20476;-58
2023/05/04 04:00:35;;;;;;;5.80;5.30;;;10.50;77.80;;;;;;5054820;28;20852;-58
2023/05/04 04:03:02;;;;;;;6.27;4.80;;;10.50;78.00;;;;;;5055038;28;20485;-58
2023/05/04 04:05:28;;;;;;;5.63;5.10;;;10.50;78.20;;;;;;5054931;28;20465;-57
2023/05/04 04:07:55;;;;;;;6.53;5.50;;;10.50;78.70;;;;;;5054833;28;20473;-58
2023/05/04 04:10:22;;;;;;;10.03;5.80;;;10.40;78.80;;;;;;5054613;28;20927;-58
2023/05/04 04:12:48;;;;;;;7.40;5.67;;;10.50;79.30;;;;;;5054880;28;20507;-58
2023/05/04 04:15:17;;;;;;;9.10;5.33;;;10.50;79.90;;;;;;5054751;28;20505;-57
2023/05/04 04:17:43;;;;;;;8.47;5.20;;;10.50;79.70;;;;;;5054762;28;20445;-58
2023/05/04 04:20:12;;;;;;;7.97;5.00;;;10.50;79.80;;;;;;5054780;28;20524;-58
2023/05/04 04:22:39;;;;;;;6.50;4.43;;;10.50;79.90;;;;;;5054589;28;20580;-57
2023/05/04 04:25:06;;;;;;;6.33;5.23;;;10.50;80.00;;;;;;5054525;28;20494;-57
2023/05/04 04:27:33;;;;;;;4.87;4.20;;;10.50;79.60;;;;;;5054267;28;20534;-57
2023/05/04 04:29:59;;;;;;;4.33;3.93;;;10.40;78.60;;;;;;5054353;28;20939;-58
2023/05/04 04:32:27;;;;;;;5.13;4.37;;;10.30;78.20;;;;;;5054573;28;20438;-58
2023/05/04 04:34:54;;;;;;;5.97;4.27;;;10.30;78.40;;;;;;5055727;28;20987;-58
2023/05/04 04:37:21;;;;;;;4.13;3.70;;;10.20;78.80;;;;;;5056232;28;20468;-58
2023/05/04 04:39:48;;;;;;;5.93;4.47;;;10.20;78.60;;;;;;5055897;28;20446;-58
2023/05/04 04:42:15;;;;;;;4.83;4.30;;;10.20;79.00;;;;;;5055517;28;20486;-58
2023/05/04 04:44:41;;;;;;;4.10;3.70;;;10.20;79.20;;;;;;5055068;28;20466;-58
2023/05/04 04:47:08;;;;;;;5.00;4.50;;;10.20;79.30;;;;;;5054317;28;20445;-58
2023/05/04 04:49:36;;;;;;;5.43;4.40;;;10.20;79.80;;;;;;5054767;28;20450;-58
2023/05/04 04:52:03;;;;;;;5.23;4.37;;;10.20;80.40;;;;;;5054379;28;20441;-58
2023/05/04 04:54:30;;;;;;;5.10;4.60;;;10.20;80.70;;;;;;5054543;28;21029;-58
2023/05/04 04:56:58;;;;;;;4.40;4.00;;;10.30;81.00;;;;;;5054207;28;20492;-58
2023/05/04 04:59:25;;;;;;;4.27;3.70;;;10.40;81.30;;;;;;5054406;28;20465;-58
2023/05/04 05:01:51;;;;;;;5.70;4.10;;;10.40;81.60;;;;;;5053567;28;21022;-58
2023/05/04 05:04:20;;;;;;;4.63;4.23;;;10.50;81.90;;;;;;5053884;28;20465;-58
2023/05/04 05:06:50;;;;;;;4.30;4.00;;;10.60;82.00;;;;;;5053570;28;20446;-58
2023/05/04 05:09:17;;;;;;;5.87;4.60;;;10.70;82.40;;;;;;5053577;28;20457;-58
2023/05/04 05:11:43;;;;;;;7.20;4.60;;;10.70;82.70;;;;;;5053657;28;20460;-58
2023/05/04 05:14:11;;;;;;;5.87;4.23;;;10.80;83.50;;;;;;5053323;28;20990;-58
2023/05/04 05:16:37;;;;;;;6.03;4.53;;;10.90;84.10;;;;;;5053679;28;20462;-58
2023/05/04 05:19:04;;;;;;;6.50;4.37;;;11.00;84.70;;;;;;5053790;28;20442;-58
2023/05/04 05:21:31;;;;;;;5.30;4.50;;;11.10;85.10;;;;;;5053541;28;20449;-58
2023/05/04 05:24:00;;;;;;;7.20;4.20;;;11.20;85.20;;;;;;5053300;28;20990;-58
2023/05/04 05:26:27;;;;;;;5.77;5.27;;;11.40;86.00;;;;;;5053255;28;20857;-58
2023/05/04 05:28:53;;;;;;;4.47;3.93;;;11.50;85.60;;;;;;5053261;28;20437;-58
2023/05/04 05:31:20;;;;;;;5.00;4.40;;;11.50;85.50;;;;;;5053448;28;20444;-58
2023/05/04 05:33:47;;;;;;;8.57;5.10;;;11.60;85.80;;;;;;5053479;28;20465;-58
2023/05/04 05:36:14;;;;;;;10.27;5.13;;;11.70;85.50;;;;;;5053449;28;20453;-58
2023/05/04 05:38:41;;;;;;;7.83;3.73;;;11.80;85.00;;;;;;5053152;28;20481;-58
2023/05/04 05:41:09;;;;;;;5.43;4.33;;;11.90;83.90;;;;;;5053135;28;20938;-58
2023/05/04 05:43:37;;;;;;;12.40;4.87;;;12.00;83.10;;;;;;5053210;28;20485;-58
2023/05/04 05:46:04;;;;;;;6.00;3.93;;;12.10;82.50;;;;;;5052953;28;20464;-58
2023/05/04 05:48:30;;;;;;;5.57;4.53;;;12.30;81.90;;;;;;5053294;28;20507;-58
2023/05/04 05:50:57;;;;;;;4.97;4.47;;;12.40;81.50;;;;;;5053293;28;20460;-58
2023/05/04 05:53:24;;;;;;;5.30;4.80;;;12.50;80.00;;;;;;5053290;28;20449;-58
2023/05/04 05:55:50;;;;;;;6.90;4.57;;;12.60;79.80;;;;;;5053222;28;20461;-58
2023/05/04 05:58:19;;;;;;;3.97;3.60;;;12.70;79.50;;;;;;5053277;28;20865;-58
2023/05/04 06:00:46;;;;;;;7.10;4.97;;;12.80;79.30;;;;;;5057461;28;20449;-58
2023/05/04 06:03:13;;;;;;;6.60;3.70;;;12.90;78.80;;;;;;5056929;28;20994;-58
2023/05/04 06:05:40;;;;;;;4.47;4.03;;;13.00;77.70;;;;;;5056972;28;21002;-58
2023/05/04 06:08:06;;;;;;;5.77;3.63;;;13.20;77.20;;;;;;5056984;28;20547;-58
2023/05/04 06:10:33;;;;;;;7.83;3.73;;;13.30;76.40;;;;;;5057153;28;20441;-58
2023/05/04 06:13:00;;;;;;;3.80;3.37;;;13.30;74.70;;;;;;5056942;28;20445;-58
2023/05/04 06:15:28;;;;;;;5.47;4.17;;;13.50;74.00;;;;;;5057125;28;20461;-58
2023/05/04 06:17:55;;;;;;;6.53;3.70;;;13.60;73.20;;;;;;5057251;28;20816;-58
2023/05/04 06:20:22;;;;;;;8.50;4.90;;;13.80;73.00;;;;;;5057077;28;20854;-58
2023/05/04 06:22:49;;;;;;;4.10;3.43;;;13.90;72.10;;;;;;5057151;28;20508;-58
2023/05/04 06:25:16;;;;;;;5.93;4.00;;;14.00;71.40;;;;;;5056850;28;20477;-58
2023/05/04 06:27:42;;;;;;;4.40;3.87;;;14.20;70.60;;;;;;5056807;28;20514;-58
2023/05/04 06:30:10;;;;;;;4.23;3.87;;;14.30;70.10;;;;;;5056746;28;20532;-58
2023/05/04 06:32:38;;;;;;;4.77;3.70;;;14.40;69.40;;;;;;5056752;28;20445;-58
2023/05/04 06:35:07;;;;;;;7.47;4.00;;;14.50;68.60;;;;;;5056730;28;20841;-58
2023/05/04 06:37:34;;;;;;;5.77;3.30;;;14.60;67.90;;;;;;5056766;28;20449;-58
2023/05/04 06:40:01;;;;;;;4.70;3.17;;;14.70;66.90;;;;;;5056274;28;20896;-58
2023/05/04 06:42:30;;;;;;;6.27;3.47;;;14.90;66.40;;;;;;5056421;28;20501;-58
2023/05/04 06:44:57;;;;;;;7.53;3.70;;;15.00;65.90;;;;;;5056407;28;20504;-58
2023/05/04 06:47:24;;;;;;;6.53;4.17;;;15.10;65.80;;;;;;5056190;28;20484;-58
2023/05/04 06:49:52;;;;;;;6.60;3.30;;;15.20;64.80;;;;;;5056509;28;20445;-58
2023/05/04 06:52:19;;;;;;;9.17;4.10;;;15.30;64.50;;;;;;5056421;28;20449;-58
2023/05/04 06:54:46;;;;;;;6.37;4.10;;;15.50;64.00;;;;;;5056346;28;20472;-58
2023/05/04 06:57:13;;;;;;;7.50;3.43;;;15.60;63.60;;;;;;5056368;28;20498;-58
2023/05/04 06:59:39;;;;;;;5.47;4.20;;;15.80;62.90;;;;;;5055961;28;20445;-58
2023/05/04 07:02:07;;;;;;;6.40;3.77;;;16.00;62.30;;;;;;5056197;28;20449;-58
2023/05/04 07:04:33;;;;;;;5.13;3.50;;;16.10;61.90;;;;;;5056180;28;20468;-58
2023/05/04 07:07:02;;;;;;;7.53;4.20;;;16.30;61.20;;;;;;5056069;28;20532;-58
2023/05/04 07:09:28;;;;;;;4.70;3.73;;;16.40;60.50;;;;;;5055515;28;20848;-58
2023/05/04 07:11:55;;;;;;;6.50;3.90;;;16.50;59.50;;;;;;5055991;28;20449;-58
2023/05/04 07:14:22;;;;;;;4.90;3.90;;;16.60;59.50;;;;;;5055869;28;20519;-58
2023/05/04 07:16:48;;;;;;;5.03;3.57;;;16.70;59.40;;;;;;5056033;28;20453;-58
2023/05/04 07:19:15;;;;;;;4.10;3.70;;;16.90;59.30;;;;;;5055779;28;20454;-58
2023/05/04 07:21:42;;;;;;;6.00;3.53;;;17.00;58.80;;;;;;5055924;28;20503;-58
2023/05/04 07:24:10;;;;;;;4.33;3.83;;;17.00;56.00;;;;;;5055736;28;20500;-58
2023/05/04 07:26:37;;;;;;;5.00;3.50;;;17.10;56.20;;;;;;5055781;28;20533;-58
2023/05/04 07:29:03;;;;;;;4.50;3.30;;;17.20;55.90;;;;;;5055647;28;20449;-58
2023/05/04 07:31:30;;;;;;;3.47;3.10;;;17.30;55.60;;;;;;5057270;28;20492;-58
2023/05/04 07:33:57;;;;;;;3.93;3.13;;;17.40;55.60;;;;;;5056439;28;20986;-58
2023/05/04 07:36:25;;;;;;;7.00;3.00;;;17.50;55.40;;;;;;5056508;28;20452;-58
2023/05/04 07:38:52;;;;;;;3.77;2.83;;;17.70;55.00;;;;;;5055915;28;20519;-58
2023/05/04 07:41:20;;;;;;;5.47;3.43;;;17.80;54.70;;;;;;5055404;28;20871;-58
2023/05/04 07:43:47;;;;;;;4.10;3.10;;;17.90;53.70;;;;;;5055958;28;20482;-58
2023/05/04 07:46:13;;;;;;;3.93;3.20;;;18.10;53.20;;;;;;5057769;28;21004;-58
2023/05/04 07:48:40;;;;;;;4.43;3.10;;;18.20;52.70;;;;;;5057168;28;20445;-58
2023/05/04 07:51:13;;;;;;;4.57;3.40;;;18.40;53.40;;;;;;5055436;28;20458;-58
2023/05/04 07:53:41;;;;;;;4.93;3.10;;;18.60;52.70;;;;;;5055297;28;20457;-58
2023/05/04 07:56:10;;;;;;;5.23;3.27;;;18.80;52.60;;;;;;5055036;28;21145;-58
2023/05/04 07:58:38;;;;;;;7.33;2.90;;;18.90;51.60;;;;;;5055202;28;20499;-58
2023/05/04 08:01:04;;;;;;;3.20;2.60;;;19.10;51.50;;;;;;5055178;28;20445;-58
2023/05/04 08:03:31;;;;;;;2.87;2.67;;;19.20;50.90;;;;;;5054720;28;20901;-58
2023/05/04 08:05:58;;;;;;;4.80;2.93;;;19.40;50.30;;;;;;5055076;28;20453;-58
2023/05/04 08:08:25;;;;;;;4.40;3.10;;;19.50;50.10;;;;;;5054764;28;20458;-58
2023/05/04 08:10:52;;;;;;;5.20;3.43;;;19.70;49.90;;;;;;5054947;28;20454;-58
2023/05/04 08:13:19;;;;;;;5.17;2.97;;;19.90;49.90;;;;;;5054893;28;20457;-58
2023/05/04 08:15:47;;;;;;;5.10;3.63;;;20.10;49.50;;;;;;5054870;28;20449;-58
2023/05/04 08:18:14;;;;;;;2.83;2.50;;;20.30;48.40;;;;;;5054887;28;20461;-58
2023/05/04 08:20:40;;;;;;;5.80;2.80;;;20.40;47.60;;;;;;5054706;28;20457;-58
2023/05/04 08:23:07;;;;;;;4.50;3.20;;;20.50;48.40;;;;;;5054061;28;20477;-58
2023/05/04 08:25:34;;;;;;;4.20;3.00;;;20.50;46.40;;;;;;5054705;28;20465;-58
2023/05/04 08:28:01;;;;;;;4.90;3.10;;;20.60;46.70;;;;;;5054702;28;20878;-58
2023/05/04 08:30:28;;;;;;;5.40;3.10;;;20.80;47.60;;;;;;5054561;28;20450;-58
2023/05/04 08:32:56;;;;;;;5.47;2.87;;;21.00;46.70;;;;;;5054536;28;20441;-58
2023/05/04 08:35:24;;;;;;;4.37;2.80;;;21.20;46.60;;;;;;5055202;28;20473;-58
2023/05/04 08:37:51;;;;;;;3.30;3.00;;;21.50;47.10;;;;;;5054475;28;20457;-58
2023/05/04 08:40:19;;;;;;;5.70;3.37;;;21.70;46.40;;;;;;5054157;28;20452;-59
2023/05/04 08:42:49;;;;;;;3.80;3.50;;;21.90;45.50;;;;;;5054208;28;20460;-58
2023/05/04 08:45:16;;;;;;;4.70;3.17;;;22.10;44.60;;;;;;5054063;28;20821;-58
2023/05/04 08:47:43;;;;;;;7.00;4.10;;;22.30;44.70;;;;;;5054271;28;20454;-58
2023/05/04 08:50:12;;;;;;;5.80;3.10;;;22.30;43.30;;;;;;5054195;28;20544;-58
2023/05/04 08:52:45;;;;;;;5.30;3.13;;;22.40;43.50;;;;;;5054235;28;20481;-58
2023/05/04 08:55:12;;;;;;;5.00;3.10;;;22.60;44.00;;;;;;5054073;28;20469;-58
2023/05/04 08:57:42;;;;;;;3.80;3.40;;;22.90;44.20;;;;;;5053757;28;20481;-59
2023/05/04 09:00:12;;;;;;;5.67;3.30;;;23.10;43.60;;;;;;5054127;28;20488;-59
2023/05/04 09:02:39;;;;;;;7.60;3.27;;;23.40;43.10;;;;;;5053902;28;20449;-58
2023/05/04 09:05:07;;;;;;;3.60;2.80;;;23.60;43.20;;;;;;5054045;28;20469;-59
2023/05/04 09:07:35;;;;;;;5.47;3.80;;;23.80;42.20;;;;;;5053856;28;20453;-58
2023/05/04 09:10:03;;;;;;;4.50;3.80;;;23.90;42.30;;;;;;5053708;28;20441;-59
2023/05/04 09:12:30;;;;;;;3.60;3.27;;;23.90;41.00;;;;;;5053701;28;20858;-56
2023/05/04 09:14:57;;;;;;;5.93;3.70;;;24.00;42.40;;;;;;5054004;28;20470;-57
2023/05/04 09:17:26;;;;;;;5.90;4.53;;;24.20;42.50;;;;;;5053609;28;20947;-57
2023/05/04 09:20:00;;;;;;;4.27;3.63;;;24.30;41.90;;;;;;5053869;28;20507;-57
2023/05/04 09:22:27;;;;;;;4.70;4.10;;;24.50;41.70;;;;;;5053522;28;20943;-57
2023/05/04 09:25:06;;;;;;;6.80;3.70;;;24.70;41.30;;;;;;5053747;28;20502;-57
2023/05/04 09:27:32;;;;;;;7.30;4.03;;;24.80;40.70;;;;;;5053634;28;20448;-57
2023/05/04 09:29:59;;;;;;;6.20;4.17;;;25.00;41.00;;;;;;5053605;28;20446;-57
2023/05/04 09:32:27;;;;;;;7.13;4.37;;;25.10;40.50;;;;;;5053697;28;20495;-57
2023/05/04 09:34:54;;;;;;;6.43;4.00;;;25.40;40.10;;;;;;5053276;28;20526;-57
2023/05/04 09:37:21;;;;;;;7.10;5.47;;;25.50;39.80;;;;;;5053348;28;20447;-57
2023/05/04 09:39:57;;;;;;;5.30;4.53;;;25.70;38.50;;;;;;5053443;28;20472;-57
2023/05/04 09:42:25;;;;;;;4.87;4.47;;;25.80;37.60;;;;;;5054250;28;20437;-57
2023/05/04 09:44:59;;;;;;;5.23;4.10;;;25.90;38.50;;;;;;5053167;28;20489;-58
2023/05/04 09:47:33;;;;;;;9.27;5.60;;;26.00;37.90;;;;;;5053372;28;20484;-57
2023/05/04 09:50:10;;;;;;;4.20;3.80;;;26.20;36.60;;;;;;5053343;28;20529;-57
2023/05/04 09:52:37;;;;;;;5.90;4.17;;;26.10;36.30;;;;;;5053317;28;20426;-57
2023/05/04 09:55:08;;;;;;;7.37;4.23;;;26.40;37.30;;;;;;5053120;28;20469;-57
2023/05/04 09:57:36;;;;;;;5.23;4.10;;;26.70;37.40;;;;;;5052932;28;20477;-57
2023/05/04 10:00:03;;;;;;;5.23;4.73;;;27.10;36.10;;;;;;5053211;28;20460;-57
2023/05/04 10:02:32;;;;;;;7.10;4.60;;;27.40;35.00;;;;;;5053705;28;20484;-57
2023/05/04 10:05:00;;;;;;;4.43;4.03;;;27.70;35.10;;;;;;5052983;28;20485;-57
2023/05/04 10:07:31;;;;;;;4.17;3.77;;;28.00;35.00;;;;;;5053030;28;20450;-57
2023/05/04 10:09:58;;;;;;;8.17;4.30;;;28.40;34.40;;;;;;5053167;28;20445;-58
2023/05/04 10:12:26;;;;;;;6.10;4.30;;;28.60;32.70;;;;;;5052840;28;20481;-57
2023/05/04 10:14:53;;;;;;;4.63;3.67;;;28.80;31.30;;;;;;5052983;28;20465;-57
2023/05/04 10:17:33;;;;;;;5.70;4.30;;;29.00;31.50;;;;;;5052809;28;20890;-57
2023/05/04 10:20:11;;;;;;;5.77;3.87;;;29.20;31.30;;;;;;5054436;28;20491;-57
2023/05/04 10:22:53;;;;;;;6.23;4.87;;;29.30;30.20;;;;;;5054516;28;20429;-57
2023/05/04 10:25:56;;;;;;;6.07;4.47;;;29.40;29.50;;;;;;5053797;28;20493;-57
2023/05/04 10:28:36;;;;;;;4.80;3.83;;;29.50;29.90;;;;;;5053166;28;20456;-57
2023/05/04 10:31:05;;;;;;;5.60;3.87;;;29.80;30.80;;;;;;5053237;28;20440;-57
2023/05/04 10:33:38;;;;;;;4.47;3.63;;;30.30;30.40;;;;;;5053047;28;20468;-57
2023/05/04 10:36:06;;;;;;;4.03;3.73;;;31.00;29.40;;;;;;5052622;28;20883;-57
2023/05/04 10:38:33;;;;;;;7.03;5.10;;;31.60;27.90;;;;;;5052978;28;20447;-57
2023/05/04 10:40:59;;;;;;;5.50;4.23;;;32.10;27.30;;;;;;5052799;28;20449;-57
2023/05/04 10:43:28;;;;;;;6.20;4.43;;;32.60;27.00;;;;;;5052328;28;20951;-58
2023/05/04 10:45:56;;;;;;;4.90;4.50;;;33.00;26.10;;;;;;5055281;28;20480;-57
2023/05/04 10:48:33;;;;;;;8.40;4.13;;;33.40;25.20;;;;;;5056612;28;20480;-57
2023/05/04 10:51:00;;;;;;;6.77;4.27;;;33.80;24.90;;;;;;5056608;28;20457;-57
2023/05/04 10:53:32;;;;;;;5.23;4.73;;;34.30;23.90;;;;;;5056573;28;20456;-57
2023/05/04 10:55:59;;;;;;;5.60;4.20;;;34.50;23.60;;;;;;5056478;28;20520;-57
2023/05/04 10:58:29;;;;;;;4.63;3.73;;;34.80;23.70;;;;;;5056456;28;20456;-57
2023/05/04 11:00:56;;;;;;;5.83;4.70;;;35.20;23.40;;;;;;5056386;28;20459;-57
2023/05/04 11:03:23;;;;;;;4.30;3.90;;;35.50;23.00;;;;;;5056027;28;20935;-58
2023/05/04 11:05:51;;;;;;;4.97;4.55;;;36.00;22.30;;;;;;5056251;28;20206;-57
2023/05/04 11:08:19;;;;;;;4.25;3.40;;;36.30;22.10;;;;;;5055681;28;20698;-58
2023/05/04 11:10:47;;;;;;;5.30;4.65;;;36.70;21.80;;;;;;5056041;28;20202;-58
2023/05/04 11:13:14;;;;;;;5.25;3.53;;;37.20;20.80;;;;;;5056053;28;20293;-58
2023/05/04 11:15:46;;;;;;;4.57;4.15;;;37.40;20.70;;;;;;5056233;28;20223;-58
2023/05/04 11:18:13;;;;;;;4.90;4.40;;;37.70;20.30;;;;;;5055936;28;20214;-58
2023/05/04 11:20:40;;;;;;;4.50;4.20;;;37.80;20.10;;;;;;5055857;28;20264;-58
2023/05/04 11:23:09;;;;;;;4.72;3.78;;;38.10;20.00;;;;;;5055854;28;20241;-58
2023/05/04 11:25:36;;;;;;;4.03;3.72;;;38.40;20.40;;;;;;5055687;28;20226;-58
2023/05/04 11:28:04;;;;;;;4.45;4.05;;;38.70;19.20;;;;;;5055758;28;20202;-58
2023/05/04 11:30:32;;;;;;;4.15;3.47;;;39.00;19.50;;;;;;5055462;28;20293;-57
2023/05/04 11:33:00;;;;;;;5.22;3.47;;;39.10;18.50;;;;;;5055684;28;20233;-58
2023/05/04 11:35:27;;;;;;;3.75;3.35;;;39.10;18.70;;;;;;5055597;28;20230;-58
2023/05/04 11:37:55;;;;;;;3.05;2.85;;;39.20;18.40;;;;;;5055586;28;20206;-58
2023/05/04 11:40:23;;;;;;;6.30;3.20;;;39.40;18.80;;;;;;5055246;28;20565;-58
2023/05/04 11:42:51;;;;;;;4.20;3.75;;;39.60;17.90;;;;;;5055548;28;20213;-58
2023/05/04 11:45:19;;;;;;;5.63;2.95;;;39.60;17.30;;;;;;5055001;28;20692;-58
2023/05/04 11:47:47;;;;;;;4.47;3.20;;;39.60;17.70;;;;;;5055386;28;20206;-58
2023/05/04 11:50:16;;;;;;;3.45;3.03;;;39.80;18.00;;;;;;5055022;28;20672;-58
2023/05/04 11:52:43;;;;;;;3.90;3.58;;;40.00;16.30;;;;;;5055348;28;20203;-58
2023/05/04 11:55:11;;;;;;;6.10;3.00;;;40.00;17.20;;;;;;5055230;28;20226;-58
2023/05/04 11:57:38;;;;;;;6.15;2.90;;;40.10;17.40;;;;;;5053885;28;20289;-58
2023/05/04 12:00:06;;;;;;;3.65;3.25;;;40.20;17.00;;;;;;5054892;28;20579;-58
2023/05/04 12:02:33;;;;;;;6.50;3.53;;;40.30;16.40;;;;;;5054883;28;20606;-58
2023/05/04 12:05:01;;;;;;;3.95;2.90;;;40.20;16.10;;;;;;5055049;28;20226;-58
2023/05/04 12:07:29;;;;;;;5.95;2.80;;;40.10;16.00;;;;;;5055026;28;20213;-58
2023/05/04 12:09:56;;;;;;;3.03;2.50;;;39.90;16.10;;;;;;5055064;28;20213;-58
2023/05/04 12:12:22;;;;;;;2.92;2.63;;;40.10;15.40;;;;;;5054787;28;20738;-58
2023/05/04 12:14:51;;;;;;;5.80;3.25;;;40.00;16.10;;;;;;5055036;28;20226;-58
2023/05/04 12:17:18;;;;;;;5.70;2.30;;;40.10;15.50;;;;;;5054978;28;20747;-58
2023/05/04 12:19:49;;;;;;;4.30;3.00;;;40.40;16.10;;;;;;5054663;28;20664;-58
2023/05/04 12:22:16;;;;;;;4.07;3.03;;;40.80;15.40;;;;;;5054888;28;20556;-58
2023/05/04 12:24:44;;;;;;;3.80;3.35;;;40.90;15.90;;;;;;5054420;28;20575;-58
2023/05/04 12:27:13;;;;;;;3.28;2.95;;;41.20;14.30;;;;;;5054909;28;20293;-58
2023/05/04 12:29:40;;;;;;;3.05;2.80;;;41.20;14.90;;;;;;5054486;28;20654;-58
2023/05/04 12:32:07;;;;;;;4.07;2.70;;;41.50;15.10;;;;;;5054562;28;20206;-58
2023/05/04 12:34:33;;;;;;;3.45;3.15;;;41.80;15.60;;;;;;5054124;28;20566;-58
2023/05/04 12:37:00;;;;;;;3.90;2.63;;;41.90;14.20;;;;;;5054557;28;20213;-58
2023/05/04 12:39:30;;;;;;;4.47;2.60;;;42.20;14.50;;;;;;5054476;28;20230;-58
2023/05/04 12:41:58;;;;;;;3.28;2.97;;;42.70;15.30;;;;;;5054430;28;20202;-58
2023/05/04 12:44:25;;;;;;;2.65;2.45;;;43.20;15.10;;;;;;5054272;28;20230;-58
2023/05/04 12:46:52;;;;;;;3.78;2.55;;;43.40;13.30;;;;;;5054365;28;20206;-58
2023/05/04 12:49:18;;;;;;;3.40;2.22;;;43.30;12.70;;;;;;5054224;28;20207;-58